Time;durP1;ratioP1;P1;durP2;ratioP2;P2;SDS_P1;SDS_P2;PMS_P1;PMS_P2;Temp;Humidity;BMP_temperature;BMP_pressure;BME280_temperature;BME280_humidity;BME280_pressure;Samples;Min_cycle;Max_cycle;Signal;HPM_P1;HPM_P2
2023/09/26 04:43:46;;;;;;;;;;;;;;;11.86;84.41;101263.23;108124;1272;23287;-47
2023/09/26 04:46:13;;;;;;;;;;;;;;;11.90;84.69;101267.46;110051;1270;22464;-47
2023/09/26 04:48:39;;;;;;;;;;;;;;;11.93;84.63;101260.34;110087;1265;23226;-46
2023/09/26 04:51:07;;;;;;;;;;;;;;;11.99;84.92;101261.27;109914;1266;22527;-46
2023/09/26 04:53:33;;;;;;;;;;;;;;;12.07;85.30;101261.86;108255;1269;22575;-56
2023/09/26 04:56:01;;;;;;;;;;;;;;;12.18;85.30;101266.33;108439;1264;22605;-47
2023/09/26 04:58:30;;;;;;;;;;;;;;;12.31;85.09;101264.16;109916;1268;23183;-45
2023/09/26 05:01:00;;;;;;;;;;;;;;;12.42;84.81;101270.90;109426;1272;22606;-46
2023/09/26 05:03:27;;;;;;;;;;;;;;;12.55;84.88;101268.91;110027;1266;23006;-45
2023/09/26 05:05:54;;;;;;;;;;;;;;;12.66;84.71;101271.77;109993;1270;22808;-46
2023/09/26 05:08:20;;;;;;;;;;;;;;;12.76;84.53;101266.07;109751;1271;22877;-45
2023/09/26 05:10:49;;;;;;;;;;;;;;;12.87;84.38;101269.64;109927;1265;22451;-46
2023/09/26 05:13:16;;;;;;;;;;;;;;;12.98;84.65;101270.23;109875;1268;22889;-56
2023/09/26 05:15:43;;;;;;;;;;;;;;;13.10;84.94;101269.23;109948;1270;22421;-55
2023/09/26 05:18:09;;;;;;;;;;;;;;;13.25;84.85;101273.71;109792;1270;22607;-56
2023/09/26 05:20:36;;;;;;;;;;;;;;;13.40;84.77;101272.57;109784;1260;22473;-45
2023/09/26 05:23:03;;;;;;;;;;;;;;;13.57;84.49;101275.08;109404;1269;22512;-46
2023/09/26 05:25:32;;;;;;;;;;;;;;;13.73;84.14;101278.63;109473;1272;22497;-45
2023/09/26 05:27:59;;;;;;;;;;;;;;;13.90;83.89;101280.24;109053;1273;22496;-46
2023/09/26 05:30:26;;;;;;;;;;;;;;;14.07;83.56;101279.75;109336;1273;23593;-47
2023/09/26 05:33:13;;;;;;;;;;;;;;;14.26;83.25;101279.40;109229;1271;22606;-48
2023/09/26 05:36:27;;;;;;;;;;;;;;;14.50;82.59;101279.78;108814;1277;22546;-56
2023/09/26 05:39:00;;;;;;;;;;;;;;;14.69;81.83;101276.44;109693;1268;22850;-45
2023/09/26 05:41:51;;;;;;;;;;;;;;;14.85;81.37;101274.13;109654;1272;22508;-45
2023/09/26 05:44:48;;;;;;;;;;;;;;;15.07;80.92;101273.54;109717;1277;22528;-55
2023/09/26 05:47:21;;;;;;;;;;;;;;;15.27;80.58;101276.11;109678;1270;22456;-54
2023/09/26 05:50:31;;;;;;;;;;;;;;;15.50;80.52;101270.56;109184;1257;22565;-45
2023/09/26 05:52:58;;;;;;;;;;;;;;;15.75;80.79;101269.59;109532;1273;22671;-47
2023/09/26 05:55:25;;;;;;;;;;;;;;;15.99;81.16;101267.34;109622;1272;23196;-54
2023/09/26 05:57:51;;;;;;;;;;;;;;;16.21;81.00;101269.27;109085;1273;22511;-54
2023/09/26 06:00:18;;;;;;;;;;;;;;;16.44;80.80;101264.16;108748;1273;23008;-56
2023/09/26 06:02:46;;;;;;;;;;;;;;;16.68;80.26;101265.36;109807;1272;22526;-46
2023/09/26 06:05:38;;;;;;;;;;;;;;;16.95;79.38;101265.09;109522;1271;22649;-53
2023/09/26 06:08:05;;;;;;;;;;;;;;;17.18;77.94;101269.23;109561;1270;22533;-45
2023/09/26 06:10:32;;;;;;;;;;;;;;;17.39;76.72;101273.21;109502;1273;22496;-46
2023/09/26 06:13:13;;;;;;;;;;;;;;;17.58;75.94;101278.42;109774;1270;23591;-46
2023/09/26 06:15:40;;;;;;;;;;;;;;;17.78;74.99;101276.77;109686;1272;22789;-46
2023/09/26 06:18:09;;;;;;;;;;;;;;;17.95;74.23;101276.36;109382;1272;22604;-55
2023/09/26 06:20:47;;;;;;;;;;;;;;;18.10;73.54;101273.48;109403;1270;22538;-46
2023/09/26 06:23:14;;;;;;;;;;;;;;;18.28;72.77;101273.02;109112;1270;22499;-55
2023/09/26 06:25:41;;;;;;;;;;;;;;;18.47;71.86;101271.98;109380;1274;23288;-55
2023/09/26 06:28:22;;;;;;;;;;;;;;;18.68;71.09;101268.46;109609;1279;22453;-56
2023/09/26 06:30:48;;;;;;;;;;;;;;;18.88;70.12;101272.70;109605;1274;22428;-56
2023/09/26 06:33:16;;;;;;;;;;;;;;;19.09;69.26;101268.04;109737;1271;22562;-55
2023/09/26 06:35:42;;;;;;;;;;;;;;;19.29;68.16;101271.88;109271;1270;24033;-56
2023/09/26 06:38:09;;;;;;;;;;;;;;;19.52;66.26;101269.83;109397;1273;22830;-47
2023/09/26 06:40:36;;;;;;;;;;;;;;;19.74;64.60;101268.11;109773;1271;22713;-56
2023/09/26 06:43:11;;;;;;;;;;;;;;;19.95;63.23;101269.05;109507;1265;22916;-46
2023/09/26 06:45:39;;;;;;;;;;;;;;;20.17;62.43;101269.78;109486;1272;22845;-56
2023/09/26 06:48:06;;;;;;;;;;;;;;;20.36;61.41;101267.86;109640;1274;23819;-55
2023/09/26 06:50:32;;;;;;;;;;;;;;;20.55;60.21;101264.77;109554;1265;184899;-54
2023/09/26 06:52:59;;;;;;;;;;;;;;;20.72;59.39;101260.43;109742;1272;22522;-55
2023/09/26 06:55:29;;;;;;;;;;;;;;;20.89;58.38;101258.73;108405;1262;22519;-54
2023/09/26 06:57:57;;;;;;;;;;;;;;;21.06;56.60;101257.35;109111;1270;22578;-46
2023/09/26 07:00:30;;;;;;;;;;;;;;;21.26;54.11;101256.08;109435;1272;22528;-55
2023/09/26 07:03:02;;;;;;;;;;;;;;;21.48;52.79;101257.05;109422;1272;22489;-46
2023/09/26 07:05:28;;;;;;;;;;;;;;;21.68;51.81;101258.05;109266;1270;23169;-47
2023/09/26 07:07:57;;;;;;;;;;;;;;;21.86;50.24;101256.23;109640;1273;23313;-55
2023/09/26 07:10:24;;;;;;;;;;;;;;;22.05;49.65;101251.90;109633;1267;22510;-55
2023/09/26 07:12:51;;;;;;;;;;;;;;;22.23;49.31;101254.87;109553;1272;22497;-56
2023/09/26 07:15:18;;;;;;;;;;;;;;;22.41;48.45;101251.10;109511;1267;23415;-57
2023/09/26 07:17:58;;;;;;;;;;;;;;;22.58;47.59;101247.66;109386;1267;23604;-49
2023/09/26 07:20:32;;;;;;;;;;;;;;;22.77;43.96;101250.34;109260;1270;23575;-45
2023/09/26 07:22:59;;;;;;;;;;;;;;;22.96;41.60;101242.27;109736;1268;22481;-45
2023/09/26 07:25:26;;;;;;;;;;;;;;;23.10;40.59;101245.45;109643;1270;22450;-44
2023/09/26 07:27:52;;;;;;;;;;;;;;;23.24;39.79;101244.02;109516;1265;23401;-44
2023/09/26 07:30:19;;;;;;;;;;;;;;;23.38;39.44;101244.06;109164;1270;22548;-44
2023/09/26 08:18:23;;;;;;;;;;;;;;;25.43;31.82;101228.98;109044;1271;22543;-49
2023/09/26 08:28:39;;;;;;;;;;;;;;;25.72;30.51;101216.52;109385;1276;22760;-43
2023/09/26 08:31:49;;;;;;;;;;;;;;;25.75;30.53;101213.69;109777;1273;22495;-49
2023/09/26 08:44:50;;;;;;;;;;;;;;;26.16;29.36;101206.14;108463;1273;23586;-51
2023/09/26 08:47:28;;;;;;;;;;;;;;;26.17;29.13;101207.16;108989;1278;22506;-44
2023/09/26 08:49:55;;;;;;;;;;;;;;;26.20;29.32;101202.84;109388;1271;25184;-44
2023/09/26 08:52:22;;;;;;;;;;;;;;;26.25;28.97;101204.92;109237;1273;22468;-45
2023/09/26 08:54:50;;;;;;;;;;;;;;;26.26;28.58;101207.21;109888;1272;22445;-43
2023/09/26 08:57:26;;;;;;;;;;;;;;;26.25;28.60;101206.00;109427;1272;22744;-43
2023/09/26 09:00:00;;;;;;;;;;;;;;;26.32;28.45;101205.31;109064;1277;23703;-44
2023/09/26 09:02:29;;;;;;;;;;;;;;;26.37;28.40;101208.10;109784;1272;23087;-44
2023/09/26 09:04:56;;;;;;;;;;;;;;;26.40;28.35;101206.52;109639;1272;22746;-44
2023/09/26 09:07:23;;;;;;;;;;;;;;;26.46;28.82;101204.10;109665;1272;23264;-50
2023/09/26 09:10:07;;;;;;;;;;;;;;;26.50;28.59;101205.13;109748;1278;22761;-51
2023/09/26 09:12:37;;;;;;;;;;;;;;;26.51;28.00;101198.44;109744;1269;22442;-50
2023/09/26 09:15:17;;;;;;;;;;;;;;;26.51;27.69;101197.54;109755;1272;22435;-50
2023/09/26 09:17:45;;;;;;;;;;;;;;;26.57;27.68;101196.88;109657;1266;23120;-49
2023/09/26 09:20:16;;;;;;;;;;;;;;;26.62;27.71;101190.52;109305;1278;22563;-51
2023/09/26 09:22:57;;;;;;;;;;;;;;;26.66;27.67;101190.32;109144;1275;22460;-43
2023/09/26 09:25:29;;;;;;;;;;;;;;;26.67;28.08;101185.96;109770;1279;22440;-43
2023/09/26 09:27:58;;;;;;;;;;;;;;;26.73;27.99;101185.30;109820;1276;22533;-47
2023/09/26 09:30:25;;;;;;;;;;;;;;;26.81;27.63;101182.02;109810;1272;23265;-44
2023/09/26 09:32:52;;;;;;;;;;;;;;;26.90;27.46;101180.08;109637;1279;22465;-44
2023/09/26 09:35:19;;;;;;;;;;;;;;;26.98;27.37;101182.34;109658;1274;23062;-44
2023/09/26 09:37:50;;;;;;;;;;;;;;;27.03;27.52;101176.31;109789;1272;22524;-46
2023/09/26 09:40:19;;;;;;;;;;;;;;;27.06;27.45;101172.27;109750;1272;23281;-43
2023/09/26 09:42:47;;;;;;;;;;;;;;;27.04;27.20;101178.05;109818;1272;22519;-43
2023/09/26 09:45:15;;;;;;;;;;;;;;;27.08;27.07;101179.52;109877;1275;22611;-44
2023/09/26 09:47:43;;;;;;;;;;;;;;;27.11;27.11;101175.21;109886;1269;22450;-43
2023/09/26 09:50:13;;;;;;;;;;;;;;;27.12;27.23;101169.45;109908;1265;22440;-45
2023/09/26 09:52:40;;;;;;;;;;;;;;;27.13;27.08;101167.41;109990;1265;22527;-45
2023/09/26 09:55:08;;;;;;;;;;;;;;;27.17;26.96;101167.34;109956;1272;22446;-45
2023/09/26 09:57:37;;;;;;;;;;;;;;;27.24;26.61;101167.84;109763;1279;23309;-44
2023/09/26 10:00:05;;;;;;;;;;;;;;;27.31;26.58;101164.42;109860;1273;22446;-44
2023/09/26 10:02:32;;;;;;;;;;;;;;;27.39;26.76;101161.48;109921;1272;22464;-44
2023/09/26 10:05:00;;;;;;;;;;;;;;;27.49;26.26;101165.21;109807;1274;23212;-45
2023/09/26 10:07:26;;;;;;;;;;;;;;;27.59;25.90;101162.84;109026;1263;23058;-45
2023/09/26 10:09:56;;;;;;;;;;;;;;;27.76;25.56;101160.63;109756;1275;22435;-50
2023/09/26 10:14:41;;;;;;;;;;;;;;;28.23;24.96;101154.28;106000;1307;544323;-49
2023/09/26 10:17:10;;;;;;;;;;;;;;;28.46;24.58;101151.80;109007;1281;23182;-43
2023/09/26 10:19:39;;;;;;;;;;;;;;;28.70;24.41;101155.02;108693;1282;22518;-49
2023/09/26 10:22:13;;;;;;;;;;;;;;;29.05;23.94;101148.87;108516;1285;23402;-49
2023/09/26 10:24:47;;;;;;;;;;;;;;;29.41;23.56;101144.91;108929;1282;22450;-55
2023/09/26 10:27:22;;;;;;;;;;;;;;;29.70;23.03;101146.22;108806;1285;188497;-51
2023/09/26 10:30:11;;;;;;;;;;;;;;;30.05;22.63;101141.94;109140;1281;23144;-44
2023/09/26 10:32:40;;;;;;;;;;;;;;;30.41;22.84;101137.48;108982;1284;22471;-51
2023/09/26 10:35:13;;;;;;;;;;;;;;;30.80;22.42;101136.88;109142;1281;22771;-45
2023/09/26 10:38:15;;;;;;;;;;;;;;;31.16;21.59;101131.77;109153;1276;22452;-55
2023/09/26 10:40:43;;;;;;;;;;;;;;;31.19;21.21;101130.84;109171;1272;23046;-44
2023/09/26 10:43:11;;;;;;;;;;;;;;;31.35;22.13;101129.10;108957;1278;22647;-44
2023/09/26 10:45:42;;;;;;;;;;;;;;;31.66;21.17;101123.94;108178;1271;22521;-53
2023/09/26 10:48:10;;;;;;;;;;;;;;;31.86;20.39;101120.64;108407;1287;22477;-43
2023/09/26 10:50:43;;;;;;;;;;;;;;;31.95;20.10;101117.41;108629;1279;22484;-54
2023/09/26 10:53:11;;;;;;;;;;;;;;;31.90;20.35;101119.78;109048;1282;22580;-45
2023/09/26 10:55:39;;;;;;;;;;;;;;;31.93;19.94;101115.42;109105;1282;22491;-44
2023/09/26 10:58:07;;;;;;;;;;;;;;;31.93;20.23;101115.22;109036;1283;22597;-45
2023/09/26 11:00:35;;;;;;;;;;;;;;;32.14;20.21;101114.30;109219;1271;23197;-56
2023/09/26 11:03:06;;;;;;;;;;;;;;;32.29;19.76;101111.13;109476;1262;23384;-44
2023/09/26 11:05:34;;;;;;;;;;;;;;;32.39;19.51;101110.05;109659;1266;23663;-56
2023/09/26 11:08:02;;;;;;;;;;;;;;;32.63;19.45;101110.47;109742;1269;23190;-46
2023/09/26 11:10:30;;;;;;;;;;;;;;;32.88;19.03;101111.20;109709;1273;22451;-46
2023/09/26 11:12:58;;;;;;;;;;;;;;;33.04;18.88;101111.85;109741;1273;22489;-55
2023/09/26 11:15:26;;;;;;;;;;;;;;;33.05;18.67;101108.89;109101;1277;23825;-55
2023/09/26 11:17:53;;;;;;;;;;;;;;;33.15;18.90;101110.92;109590;1272;23708;-45
2023/09/26 11:20:21;;;;;;;;;;;;;;;33.51;18.80;101111.20;109527;1278;22488;-44
2023/09/26 11:22:49;;;;;;;;;;;;;;;33.85;18.41;101101.83;109611;1277;22453;-54
2023/09/26 11:25:17;;;;;;;;;;;;;;;33.72;18.20;101103.33;109620;1278;22430;-45
2023/09/26 11:27:45;;;;;;;;;;;;;;;33.15;19.23;101108.24;109180;1278;23408;-53
2023/09/26 11:30:19;;;;;;;;;;;;;;;32.65;19.65;101102.55;109658;1278;22456;-45
2023/09/26 11:32:50;;;;;;;;;;;;;;;32.16;20.25;101104.20;109743;1278;22588;-45
2023/09/26 11:35:19;;;;;;;;;;;;;;;31.80;20.39;101104.13;109709;1278;22544;-52
2023/09/26 11:37:50;;;;;;;;;;;;;;;31.52;20.52;101098.31;109777;1273;22516;-53
2023/09/26 11:40:21;;;;;;;;;;;;;;;31.29;21.30;101098.58;109767;1278;22440;-52
2023/09/26 11:42:51;;;;;;;;;;;;;;;31.11;20.98;101102.41;109760;1278;22999;-53
2023/09/26 11:45:19;;;;;;;;;;;;;;;30.93;21.17;101098.63;109715;1276;22904;-46
2023/09/26 11:47:47;;;;;;;;;;;;;;;30.72;21.28;101100.93;109724;1279;23583;-53
2023/09/26 11:50:14;;;;;;;;;;;;;;;30.45;21.01;101095.97;109798;1271;23001;-53
2023/09/26 11:52:42;;;;;;;;;;;;;;;30.15;21.66;101094.80;109591;1273;22561;-46
2023/09/26 11:55:18;;;;;;;;;;;;;;;29.90;21.79;101094.75;109774;1278;23024;-45
2023/09/26 11:57:48;;;;;;;;;;;;;;;29.69;22.01;101097.43;109843;1272;22441;-45
2023/09/26 12:00:16;;;;;;;;;;;;;;;29.53;22.43;101097.77;109871;1278;22400;-45
2023/09/26 12:02:44;;;;;;;;;;;;;;;29.41;22.54;101098.53;109831;1279;22422;-46
2023/09/26 12:05:12;;;;;;;;;;;;;;;29.33;22.60;101099.48;109917;1278;23043;-52
2023/09/26 12:07:39;;;;;;;;;;;;;;;29.24;22.31;101093.23;109848;1278;22524;-45
2023/09/26 12:10:07;;;;;;;;;;;;;;;29.18;22.30;101096.85;109747;1275;22435;-45
2023/09/26 12:12:35;;;;;;;;;;;;;;;29.07;22.43;101095.95;109698;1278;22532;-45
2023/09/26 12:15:22;;;;;;;;;;;;;;;29.00;22.30;101092.97;109764;1272;22457;-52
2023/09/26 12:17:51;;;;;;;;;;;;;;;28.97;22.48;101091.17;109736;1272;22458;-51
2023/09/26 12:20:24;;;;;;;;;;;;;;;29.07;22.73;101095.05;109780;1275;22542;-52
2023/09/26 12:22:52;;;;;;;;;;;;;;;29.31;22.44;101091.89;109780;1278;23085;-45
2023/09/26 12:25:22;;;;;;;;;;;;;;;29.51;22.33;101084.94;109780;1278;22408;-52
2023/09/26 12:27:50;;;;;;;;;;;;;;;29.61;22.10;101086.48;109775;1278;23649;-45
2023/09/26 12:30:19;;;;;;;;;;;;;;;29.54;21.67;101085.51;109779;1278;22454;-48
2023/09/26 12:32:47;;;;;;;;;;;;;;;29.38;21.79;101078.06;109830;1278;22446;-56
2023/09/26 12:35:15;;;;;;;;;;;;;;;29.26;21.59;101076.35;109787;1278;22415;-51
2023/09/26 12:37:43;;;;;;;;;;;;;;;29.08;21.99;101085.80;109802;1278;22428;-52
2023/09/26 12:40:13;;;;;;;;;;;;;;;28.97;22.01;101082.95;109801;1279;22412;-52
2023/09/26 12:42:41;;;;;;;;;;;;;;;28.92;22.11;101082.01;109893;1279;23242;-44
2023/09/26 12:45:09;;;;;;;;;;;;;;;28.90;22.11;101079.77;109928;1278;22921;-44
2023/09/26 12:47:37;;;;;;;;;;;;;;;29.00;21.87;101078.27;109805;1278;22447;-51
2023/09/26 12:50:08;;;;;;;;;;;;;;;29.16;21.56;101073.98;109993;1278;22430;-44
2023/09/26 12:52:37;;;;;;;;;;;;;;;29.18;21.68;101076.56;109945;1279;23147;-53
2023/09/26 12:55:05;;;;;;;;;;;;;;;29.17;21.74;101075.71;109942;1279;23103;-53
2023/09/26 12:57:33;;;;;;;;;;;;;;;29.15;21.59;101079.58;110014;1279;22474;-46
2023/09/26 13:00:01;;;;;;;;;;;;;;;29.09;21.25;101080.15;109989;1279;22526;-44
2023/09/26 13:02:30;;;;;;;;;;;;;;;29.07;21.40;101086.05;109995;1278;22486;-53
2023/09/26 13:04:58;;;;;;;;;;;;;;;29.21;21.28;101078.87;110022;1278;22443;-53
2023/09/26 13:07:26;;;;;;;;;;;;;;;29.37;21.44;101079.42;109966;1278;22486;-52
2023/09/26 13:09:53;;;;;;;;;;;;;;;29.57;21.44;101074.84;110001;1278;23089;-45
2023/09/26 13:12:21;;;;;;;;;;;;;;;29.88;20.96;101072.73;109995;1279;22465;-46
2023/09/26 13:14:48;;;;;;;;;;;;;;;29.93;20.88;101069.01;108417;1278;25430;-45
2023/09/26 13:17:16;;;;;;;;;;;;;;;29.79;21.07;101076.08;107198;1278;25341;-45
2023/09/26 13:19:44;;;;;;;;;;;;;;;29.62;21.17;101077.98;108214;1279;22496;-46
2023/09/26 13:22:13;;;;;;;;;;;;;;;29.45;21.44;101078.69;110048;1278;22775;-44
2023/09/26 13:24:41;;;;;;;;;;;;;;;29.39;21.63;101083.08;110029;1274;22464;-52
2023/09/26 13:27:09;;;;;;;;;;;;;;;29.49;21.58;101079.19;110028;1279;22630;-46
2023/09/26 13:29:37;;;;;;;;;;;;;;;29.57;21.58;101071.63;108521;1278;23011;-46
2023/09/26 13:32:05;;;;;;;;;;;;;;;29.67;21.42;101074.01;110036;1278;23277;-51
2023/09/26 13:34:33;;;;;;;;;;;;;;;29.83;21.09;101070.42;108931;1279;22512;-54
2023/09/26 13:37:01;;;;;;;;;;;;;;;30.08;20.85;101069.98;108691;1278;22491;-46
2023/09/26 13:39:28;;;;;;;;;;;;;;;30.09;20.66;101066.47;108801;1278;24147;-51
2023/09/26 13:41:56;;;;;;;;;;;;;;;29.90;20.68;101074.44;110043;1279;22444;-45
2023/09/26 13:44:23;;;;;;;;;;;;;;;29.65;20.90;101074.90;110048;1279;22468;-45
2023/09/26 13:46:51;;;;;;;;;;;;;;;29.42;21.17;101076.21;110075;1278;22559;-46
2023/09/26 13:49:19;;;;;;;;;;;;;;;29.29;21.38;101079.79;110074;1276;22437;-52
2023/09/26 13:51:46;;;;;;;;;;;;;;;29.34;21.48;101079.77;109989;1279;22418;-46
2023/09/26 13:54:14;;;;;;;;;;;;;;;29.40;21.66;101082.09;110078;1278;22469;-45
2023/09/26 13:56:41;;;;;;;;;;;;;;;29.37;21.50;101081.75;110120;1275;22530;-45
2023/09/26 13:59:09;;;;;;;;;;;;;;;29.31;21.53;101083.24;110167;1276;22418;-51
2023/09/26 14:01:36;;;;;;;;;;;;;;;29.26;21.81;101075.83;110253;1276;22448;-45
2023/09/26 14:04:05;;;;;;;;;;;;;;;29.28;22.12;101079.69;110110;1276;22443;-51
2023/09/26 14:06:33;;;;;;;;;;;;;;;29.27;22.76;101076.32;110072;1276;23173;-45
2023/09/26 14:09:00;;;;;;;;;;;;;;;29.43;22.67;101072.73;110337;1275;22448;-51
2023/09/26 14:11:28;;;;;;;;;;;;;;;29.57;22.78;101071.46;110270;1276;23243;-45
2023/09/26 14:13:55;;;;;;;;;;;;;;;29.50;22.76;101075.48;109080;1276;22494;-45
2023/09/26 14:16:24;;;;;;;;;;;;;;;29.38;22.87;101075.73;110113;1275;23236;-45
2023/09/26 14:18:52;;;;;;;;;;;;;;;29.26;22.86;101078.89;110218;1276;22455;-51
